Time;durP1;ratioP1;P1;durP2;ratioP2;P2;SDS_P1;SDS_P2;PMS_P1;PMS_P2;Temp;Humidity;BMP_temperature;BMP_pressure;BME280_temperature;BME280_humidity;BME280_pressure;Samples;Min_cycle;Max_cycle;Signal;HPM_P1;HPM_P2
2022/05/05 00:01:22;;;;;;;14.98;8.38;;;;;;;;;;5074378;27;95025;-72
2022/05/05 00:03:49;;;;;;;13.95;8.00;;;;;;;;;;5071594;27;95170;-73
2022/05/05 00:06:15;;;;;;;17.15;8.82;;;;;;;;;;5072646;27;96888;-73
2022/05/05 00:08:44;;;;;;;20.08;8.25;;;;;;;;;;5075719;27;97130;-77
2022/05/05 00:16:40;;;;;;;18.20;7.90;;;;;;;;;;5074490;27;97268;-76
2022/05/05 00:19:06;;;;;;;20.05;8.45;;;;;;;;;;5074917;27;95363;-74
2022/05/05 00:21:32;;;;;;;15.20;8.57;;;;;;;;;;5075051;27;99846;-74
2022/05/05 00:23:59;;;;;;;17.38;8.18;;;;;;;;;;5078428;27;96087;-73
2022/05/05 00:26:25;;;;;;;12.60;7.05;;;;;;;;;;5074462;27;96837;-76
2022/05/05 00:28:51;;;;;;;16.17;7.55;;;;;;;;;;5073062;27;96314;-73
2022/05/05 00:31:18;;;;;;;17.85;7.93;;;;;;;;;;5074358;27;95354;-73
2022/05/05 00:33:45;;;;;;;15.35;8.13;;;;;;;;;;5075318;27;95061;-75
2022/05/05 00:36:11;;;;;;;16.80;7.93;;;;;;;;;;5075255;27;97257;-73
2022/05/05 00:38:37;;;;;;;16.35;8.48;;;;;;;;;;5073514;27;95374;-74
2022/05/05 00:41:04;;;;;;;15.10;7.50;;;;;;;;;;5074880;27;96498;-73
2022/05/05 00:43:30;;;;;;;18.35;8.15;;;;;;;;;;5074926;27;95913;-74
2022/05/05 00:45:56;;;;;;;14.45;7.40;;;;;;;;;;5077730;27;95301;-74
2022/05/05 00:48:27;;;;;;;14.13;7.70;;;;;;;;;;5074719;27;97234;-74
2022/05/05 00:50:54;;;;;;;13.73;6.78;;;;;;;;;;5074460;27;95293;-73
2022/05/05 00:53:20;;;;;;;12.93;6.65;;;;;;;;;;5074660;27;95750;-74
2022/05/05 00:55:48;;;;;;;13.90;7.00;;;;;;;;;;5074575;27;97050;-73
2022/05/05 00:58:15;;;;;;;14.25;7.03;;;;;;;;;;5075125;27;95379;-74
2022/05/05 01:00:41;;;;;;;11.57;7.10;;;;;;;;;;5074592;27;96529;-73
2022/05/05 01:03:08;;;;;;;12.57;7.43;;;;;;;;;;5074653;27;97276;-73
2022/05/05 01:05:36;;;;;;;13.02;7.40;;;;;;;;;;5074426;27;95302;-73
2022/05/05 01:08:03;;;;;;;18.38;7.05;;;;;;;;;;5077478;27;97025;-73
2022/05/05 01:10:30;;;;;;;20.92;7.43;;;;;;;;;;5074767;27;94991;-72
2022/05/05 01:12:56;;;;;;;12.45;7.32;;;;;;;;;;5074223;27;96468;-72
2022/05/05 01:15:22;;;;;;;14.77;6.90;;;;;;;;;;5073527;27;97207;-73
2022/05/05 01:17:49;;;;;;;17.27;7.47;;;;;;;;;;5074216;27;95302;-74
2022/05/05 01:20:20;;;;;;;12.18;6.95;;;;;;;;;;5072845;27;97191;-73
2022/05/05 01:22:46;;;;;;;18.05;7.68;;;;;;;;;;5074199;27;97416;-74
2022/05/05 01:28:12;;;;;;;15.45;7.30;;;;;;;;;;5066266;27;97184;-73
2022/05/05 01:30:40;;;;;;;20.05;7.63;;;;;;;;;;5056626;27;97397;-74
2022/05/05 01:33:10;;;;;;;13.90;8.00;;;;;;;;;;5054205;27;97191;-74
2022/05/05 01:35:37;;;;;;;13.10;6.97;;;;;;;;;;5051726;27;97481;-75
2022/05/05 01:38:03;;;;;;;17.65;7.38;;;;;;;;;;5053814;27;95328;-76
2022/05/05 01:40:29;;;;;;;13.35;7.47;;;;;;;;;;5053358;27;97009;-75
2022/05/05 01:42:55;;;;;;;13.48;7.43;;;;;;;;;;5052299;27;96290;-73
2022/05/05 01:45:22;;;;;;;14.30;7.65;;;;;;;;;;5053693;27;95208;-74
2022/05/05 01:47:48;;;;;;;12.63;7.45;;;;;;;;;;5053727;27;96516;-74
2022/05/05 01:50:14;;;;;;;10.85;7.32;;;;;;;;;;5056450;27;97295;-76
2022/05/05 01:52:41;;;;;;;14.60;7.15;;;;;;;;;;5053580;27;96780;-74
2022/05/05 01:55:08;;;;;;;13.02;6.60;;;;;;;;;;5053367;27;97223;-73
2022/05/05 01:57:34;;;;;;;12.13;6.78;;;;;;;;;;5053137;27;95341;-73
2022/05/05 02:00:02;;;;;;;15.93;7.10;;;;;;;;;;5053338;27;96797;-75
2022/05/05 02:02:29;;;;;;;14.68;6.75;;;;;;;;;;5053141;27;96740;-76
2022/05/05 02:04:55;;;;;;;12.52;6.43;;;;;;;;;;5052750;27;95778;-76
2022/05/05 02:07:21;;;;;;;13.57;6.13;;;;;;;;;;5073889;27;96756;-74
2022/05/05 02:09:48;;;;;;;13.95;6.78;;;;;;;;;;5072911;27;97499;-75
2022/05/05 02:12:14;;;;;;;10.52;6.05;;;;;;;;;;5077051;27;95321;-74
2022/05/05 02:14:40;;;;;;;12.88;6.03;;;;;;;;;;5073493;27;96019;-74
2022/05/05 02:17:07;;;;;;;12.60;6.75;;;;;;;;;;5073214;27;95423;-76
2022/05/05 02:19:33;;;;;;;9.45;6.22;;;;;;;;;;5072101;27;96839;-75
2022/05/05 02:22:00;;;;;;;14.27;6.78;;;;;;;;;;5073243;27;97350;-73
2022/05/05 02:24:26;;;;;;;12.65;7.50;;;;;;;;;;5073219;27;95119;-74
2022/05/05 02:26:53;;;;;;;12.40;7.47;;;;;;;;;;5073645;27;94933;-74
2022/05/05 02:29:19;;;;;;;14.05;7.53;;;;;;;;;;5072251;27;97339;-76
2022/05/05 02:31:45;;;;;;;13.35;7.18;;;;;;;;;;5073090;27;95336;-73
2022/05/05 02:34:12;;;;;;;12.75;6.80;;;;;;;;;;5076502;27;96900;-73
2022/05/05 02:39:23;;;;;;;19.17;7.63;;;;;;;;;;5072906;27;96769;-75
2022/05/05 02:41:49;;;;;;;14.27;6.93;;;;;;;;;;5072901;27;97425;-75
2022/05/05 02:44:16;;;;;;;13.73;7.35;;;;;;;;;;5073154;27;95159;-73
2022/05/05 02:46:42;;;;;;;13.93;7.85;;;;;;;;;;5073239;27;97203;-76
2022/05/05 02:49:10;;;;;;;14.38;7.53;;;;;;;;;;5072814;27;97369;-75
2022/05/05 02:51:36;;;;;;;14.23;7.82;;;;;;;;;;5072780;27;95547;-74
2022/05/05 02:56:47;;;;;;;11.70;7.10;;;;;;;;;;5075800;27;97390;-73
2022/05/05 02:59:13;;;;;;;12.60;7.20;;;;;;;;;;5072867;27;95149;-76
2022/05/05 03:01:40;;;;;;;15.13;7.78;;;;;;;;;;5072292;27;97405;-74
2022/05/05 03:04:06;;;;;;;13.63;6.70;;;;;;;;;;5073032;27;97000;-73
2022/05/05 03:06:32;;;;;;;11.90;6.95;;;;;;;;;;5058501;27;96820;-74
2022/05/05 03:08:59;;;;;;;12.07;6.80;;;;;;;;;;5051846;27;95150;-73
2022/05/05 03:11:25;;;;;;;12.23;6.68;;;;;;;;;;5052458;27;95144;-75
2022/05/05 03:13:51;;;;;;;13.93;6.88;;;;;;;;;;5051919;27;97067;-74
2022/05/05 03:16:17;;;;;;;13.80;6.93;;;;;;;;;;5052094;27;97441;-73
2022/05/05 03:18:44;;;;;;;10.75;6.35;;;;;;;;;;5055684;27;95435;-74
2022/05/05 03:21:10;;;;;;;13.27;7.05;;;;;;;;;;5049640;27;97340;-74
2022/05/05 03:23:37;;;;;;;12.50;6.38;;;;;;;;;;5052215;27;95184;-73
2022/05/05 03:26:03;;;;;;;11.73;5.93;;;;;;;;;;5052023;27;96810;-73
2022/05/05 03:28:29;;;;;;;11.43;6.28;;;;;;;;;;5063542;27;97273;-73
2022/05/05 03:30:56;;;;;;;11.40;6.40;;;;;;;;;;5072895;27;95031;-73
2022/05/05 03:33:22;;;;;;;12.27;6.78;;;;;;;;;;5072395;27;96874;-75
2022/05/05 03:35:48;;;;;;;12.80;6.88;;;;;;;;;;5072182;27;97302;-73
2022/05/05 03:38:14;;;;;;;13.32;6.65;;;;;;;;;;5072862;27;95553;-73
2022/05/05 03:40:41;;;;;;;13.80;7.50;;;;;;;;;;5076006;27;96959;-73
2022/05/05 03:43:07;;;;;;;11.45;6.13;;;;;;;;;;5075142;27;95104;-73
2022/05/05 03:45:34;;;;;;;12.27;6.65;;;;;;;;;;5075408;27;95725;-73
2022/05/05 03:48:00;;;;;;;11.90;6.88;;;;;;;;;;5076001;27;97313;-74
2022/05/05 03:50:26;;;;;;;13.65;6.68;;;;;;;;;;5075240;27;95856;-74
2022/05/05 03:52:53;;;;;;;14.40;6.85;;;;;;;;;;5075934;27;96648;-74
2022/05/05 03:55:19;;;;;;;14.48;7.07;;;;;;;;;;5075201;27;97953;-74
2022/05/05 03:57:50;;;;;;;16.90;7.00;;;;;;;;;;5075919;27;95382;-75
2022/05/05 04:00:19;;;;;;;13.15;6.78;;;;;;;;;;5079013;27;97010;-75
2022/05/05 04:03:30;;;;;;;10.70;6.68;;;;;;;;;;5075107;27;95469;-74
2022/05/05 04:05:31;;;;;;;14.80;7.43;;;;;;;;;;5070225;27;96967;-74
2022/05/05 04:07:58;;;;;;;14.00;6.60;;;;;;;;;;5054621;27;97693;-75
2022/05/05 04:10:24;;;;;;;16.05;7.60;;;;;;;;;;5054681;27;95300;-73
2022/05/05 04:12:50;;;;;;;15.25;7.88;;;;;;;;;;5054920;27;96771;-73
2022/05/05 04:15:16;;;;;;;16.73;8.32;;;;;;;;;;5054928;27;97229;-73
2022/05/05 04:17:43;;;;;;;16.33;8.35;;;;;;;;;;5054748;27;95468;-73
2022/05/05 04:20:09;;;;;;;15.23;8.05;;;;;;;;;;5054655;27;96878;-73
2022/05/05 04:22:36;;;;;;;16.70;8.75;;;;;;;;;;5057703;27;97355;-72
2022/05/05 04:25:02;;;;;;;17.92;8.88;;;;;;;;;;5054676;27;96731;-73
2022/05/05 04:27:28;;;;;;;15.23;8.63;;;;;;;;;;5058444;27;95780;-75
2022/05/05 04:29:55;;;;;;;16.75;8.27;;;;;;;;;;5075263;27;95304;-73
2022/05/05 04:32:22;;;;;;;16.15;7.80;;;;;;;;;;5073128;27;96824;-73
2022/05/05 04:34:48;;;;;;;16.48;8.18;;;;;;;;;;5074915;27;97282;-76
2022/05/05 04:37:20;;;;;;;20.00;9.47;;;;;;;;;;5075013;27;95188;-76
2022/05/05 04:39:46;;;;;;;14.50;8.23;;;;;;;;;;5075321;27;96679;-76
2022/05/05 04:42:12;;;;;;;24.00;8.75;;;;;;;;;;5074779;27;96301;-77
2022/05/05 04:44:44;;;;;;;21.77;8.73;;;;;;;;;;5078000;27;95175;-74
2022/05/05 04:47:10;;;;;;;16.40;8.00;;;;;;;;;;5074960;27;97208;-75
2022/05/05 04:49:37;;;;;;;16.05;8.18;;;;;;;;;;5075245;27;95389;-75
2022/05/05 04:52:04;;;;;;;14.73;8.10;;;;;;;;;;5073544;27;95913;-76
2022/05/05 04:54:30;;;;;;;18.08;8.63;;;;;;;;;;5074803;27;97486;-76
2022/05/05 04:56:56;;;;;;;18.92;9.07;;;;;;;;;;5074740;27;95055;-75
2022/05/05 04:59:22;;;;;;;20.48;10.63;;;;;;;;;;5074423;27;97193;-72
2022/05/05 05:01:49;;;;;;;22.05;10.32;;;;;;;;;;5074020;27;97196;-73
2022/05/05 05:04:19;;;;;;;23.02;9.20;;;;;;;;;;5074643;27;95263;-76
2022/05/05 05:06:45;;;;;;;23.30;9.52;;;;;;;;;;5072577;27;96835;-72
2022/05/05 19:48:51;;;;;;;38.70;22.25;;;;;;;;;;5009132;28;95351;-76
2022/05/05 19:51:17;;;;;;;34.83;21.27;;;;;;;;;;4983767;28;98728;-75
2022/05/05 19:53:43;;;;;;;43.33;23.05;;;;;;;;;;4985033;28;95274;-74
2022/05/05 20:01:40;;;;;;;43.97;22.17;;;;;;;;;;4972661;28;95312;-75
2022/05/05 20:04:06;;;;;;;39.95;22.08;;;;;;;;;;4987966;28;95613;-74
2022/05/05 20:09:17;;;;;;;36.92;21.95;;;;;;;;;;4999569;28;95133;-74
2022/05/05 20:11:44;;;;;;;35.88;22.42;;;;;;;;;;5001270;28;97428;-74
2022/05/05 20:14:10;;;;;;;39.95;21.50;;;;;;;;;;4987450;28;95687;-74
2022/05/05 20:16:37;;;;;;;37.25;21.83;;;;;;;;;;4987533;28;96966;-74
2022/05/05 20:19:03;;;;;;;37.03;21.85;;;;;;;;;;4994152;28;97310;-74
2022/05/05 20:21:30;;;;;;;38.15;21.73;;;;;;;;;;5005340;28;95411;-74
2022/05/05 20:23:56;;;;;;;35.53;21.88;;;;;;;;;;4995631;28;96828;-74
2022/05/05 20:26:23;;;;;;;41.97;22.73;;;;;;;;;;4986223;28;97099;-75
2022/05/05 20:28:55;;;;;;;34.50;22.30;;;;;;;;;;4990072;28;96800;-74
2022/05/05 20:31:22;;;;;;;37.08;22.65;;;;;;;;;;4990151;28;96746;-74
2022/05/05 20:33:49;;;;;;;35.35;22.20;;;;;;;;;;4987472;28;96315;-74
2022/05/05 20:36:20;;;;;;;36.13;21.48;;;;;;;;;;4987414;28;96975;-74
2022/05/05 20:38:47;;;;;;;37.55;22.20;;;;;;;;;;4986824;28;97196;-73
2022/05/05 20:41:13;;;;;;;36.15;21.80;;;;;;;;;;4986614;28;96175;-75
2022/05/05 20:43:39;;;;;;;37.42;21.67;;;;;;;;;;4985319;28;96774;-73
2022/05/05 20:46:05;;;;;;;36.20;22.05;;;;;;;;;;4990019;28;97647;-73
2022/05/05 20:48:32;;;;;;;34.05;20.10;;;;;;;;;;4986085;28;96099;-73
2022/05/05 20:50:58;;;;;;;35.42;21.33;;;;;;;;;;5001272;28;96544;-73
2022/05/05 20:53:25;;;;;;;34.35;21.52;;;;;;;;;;4992970;28;96053;-74
2022/05/05 20:55:54;;;;;;;36.60;22.00;;;;;;;;;;4987218;28;96629;-73
2022/05/05 20:58:20;;;;;;;37.50;20.60;;;;;;;;;;4984342;28;97440;-74
2022/05/05 21:00:48;;;;;;;35.90;19.90;;;;;;;;;;4974222;28;95192;-74
2022/05/05 21:03:15;;;;;;;34.13;20.27;;;;;;;;;;4975960;28;96896;-73
2022/05/05 21:05:42;;;;;;;40.42;21.25;;;;;;;;;;4974087;28;97353;-74
2022/05/05 21:08:10;;;;;;;38.55;20.58;;;;;;;;;;4977792;28;96027;-73
2022/05/05 21:10:37;;;;;;;38.03;20.25;;;;;;;;;;4977986;28;96864;-74
2022/05/05 21:13:03;;;;;;;39.45;20.00;;;;;;;;;;4974085;28;97335;-74
2022/05/05 21:15:29;;;;;;;30.48;19.95;;;;;;;;;;4977105;28;95431;-74
2022/05/05 21:17:56;;;;;;;39.15;20.25;;;;;;;;;;4972696;28;97121;-73
2022/05/05 21:25:52;;;;;;;36.25;19.70;;;;;;;;;;4973989;28;97240;-75
2022/05/05 21:28:19;;;;;;;40.05;21.67;;;;;;;;;;4972472;28;95393;-75
2022/05/05 21:30:45;;;;;;;43.95;23.25;;;;;;;;;;4977319;28;96920;-74
2022/05/05 21:33:11;;;;;;;37.28;22.13;;;;;;;;;;4974428;28;97461;-74
2022/05/05 21:35:37;;;;;;;42.20;23.95;;;;;;;;;;4974245;28;95355;-75
2022/05/05 21:38:04;;;;;;;48.38;24.50;;;;;;;;;;4972668;28;97034;-75
2022/05/05 21:40:50;;;;;;;44.17;24.73;;;;;;;;;;4974086;28;95346;-74
2022/05/05 21:43:17;;;;;;;46.55;24.85;;;;;;;;;;4973829;28;96841;-75
2022/05/05 21:45:44;;;;;;;46.65;25.15;;;;;;;;;;4972890;28;97284;-77
2022/05/05 21:48:10;;;;;;;45.40;26.20;;;;;;;;;;4974114;28;95354;-77
2022/05/05 21:50:37;;;;;;;47.40;25.35;;;;;;;;;;4972818;28;95729;-74
2022/05/05 21:53:03;;;;;;;47.63;24.70;;;;;;;;;;4973828;28;97251;-76
2022/05/05 21:55:30;;;;;;;42.97;24.75;;;;;;;;;;4973611;28;95435;-76
2022/05/05 21:57:56;;;;;;;46.55;26.05;;;;;;;;;;4978723;28;96747;-76
2022/05/05 22:00:35;;;;;;;49.00;25.27;;;;;;;;;;4989499;28;95528;-77
2022/05/05 22:03:01;;;;;;;44.38;24.65;;;;;;;;;;4976569;28;95895;-76
2022/05/05 22:05:27;;;;;;;42.63;24.67;;;;;;;;;;4972087;28;96225;-77
2022/05/05 22:07:54;;;;;;;43.90;25.35;;;;;;;;;;4973788;28;95323;-77
2022/05/05 22:10:20;;;;;;;45.28;24.70;;;;;;;;;;4978135;28;97085;-75
2022/05/05 22:12:46;;;;;;;43.00;24.73;;;;;;;;;;4992834;28;97270;-76
2022/05/05 22:15:12;;;;;;;47.15;25.75;;;;;;;;;;4993883;28;95239;-76
2022/05/05 22:17:39;;;;;;;45.17;24.73;;;;;;;;;;4992281;28;96697;-75
2022/05/05 22:20:06;;;;;;;46.20;25.63;;;;;;;;;;4970360;28;97364;-76
2022/05/05 22:22:32;;;;;;;44.58;24.35;;;;;;;;;;4968883;28;96687;-75
2022/05/05 22:24:58;;;;;;;41.53;23.65;;;;;;;;;;4961932;28;97293;-75
2022/05/05 22:27:24;;;;;;;47.83;24.63;;;;;;;;;;4972843;28;95453;-75
2022/05/05 22:29:51;;;;;;;41.55;24.40;;;;;;;;;;4980381;28;96847;-75
2022/05/05 22:32:18;;;;;;;46.83;24.65;;;;;;;;;;4985996;28;97384;-75
2022/05/05 22:34:44;;;;;;;43.38;24.20;;;;;;;;;;4972505;28;95276;-72
2022/05/05 22:37:12;;;;;;;44.38;25.35;;;;;;;;;;4975723;28;97010;-76
2022/05/05 22:39:38;;;;;;;49.28;25.50;;;;;;;;;;4963487;28;97032;-75
2022/05/05 22:42:05;;;;;;;44.13;26.10;;;;;;;;;;4956336;28;95517;-75
2022/05/05 22:44:31;;;;;;;43.63;25.38;;;;;;;;;;4967728;28;97324;-74
2022/05/05 22:46:57;;;;;;;43.10;24.23;;;;;;;;;;4971749;28;95295;-75
2022/05/05 22:52:09;;;;;;;42.80;24.73;;;;;;;;;;4973185;28;97279;-73
2022/05/05 22:54:38;;;;;;;52.55;26.88;;;;;;;;;;4972675;28;96150;-75
2022/05/05 22:57:06;;;;;;;51.03;25.27;;;;;;;;;;4978912;28;95550;-76
2022/05/05 22:59:32;;;;;;;45.47;26.40;;;;;;;;;;4975498;28;97805;-75
2022/05/05 23:01:58;;;;;;;43.75;25.45;;;;;;;;;;4966828;28;95376;-75
2022/05/05 23:04:26;;;;;;;49.85;27.20;;;;;;;;;;4956349;28;96747;-74
2022/05/05 23:06:52;;;;;;;44.53;25.75;;;;;;;;;;4954062;28;95372;-76
2022/05/05 23:09:18;;;;;;;49.58;26.42;;;;;;;;;;4971593;28;96844;-73
2022/05/05 23:11:45;;;;;;;48.80;26.65;;;;;;;;;;4972433;28;97301;-75
2022/05/05 23:14:12;;;;;;;50.88;26.88;;;;;;;;;;4972792;28;95267;-73
2022/05/05 23:16:38;;;;;;;39.08;20.98;;;;;;;;;;4971688;28;97336;-77
2022/05/05 23:19:04;;;;;;;43.10;23.00;;;;;;;;;;4972254;28;97421;-76
2022/05/05 23:21:31;;;;;;;38.60;21.23;;;;;;;;;;4971833;28;95331;-76
2022/05/05 23:23:57;;;;;;;44.35;23.35;;;;;;;;;;4972143;28;95685;-74
2022/05/05 23:26:23;;;;;;;36.25;20.75;;;;;;;;;;4975081;28;97348;-73
2022/05/05 23:28:49;;;;;;;35.10;19.75;;;;;;;;;;4963878;28;96729;-73
2022/05/05 23:31:16;;;;;;;40.38;20.85;;;;;;;;;;4963799;28;97300;-73
2022/05/05 23:33:42;;;;;;;33.83;19.30;;;;;;;;;;4953228;28;95300;-72
2022/05/05 23:38:54;;;;;;;43.88;22.75;;;;;;;;;;4971692;28;98554;-74
2022/05/05 23:41:21;;;;;;;51.65;25.75;;;;;;;;;;4971960;28;95370;-74
2022/05/05 23:43:47;;;;;;;47.80;24.98;;;;;;;;;;4972526;28;96889;-73
2022/05/05 23:46:13;;;;;;;54.78;26.73;;;;;;;;;;4971510;28;96299;-75
2022/05/05 23:48:41;;;;;;;55.78;25.38;;;;;;;;;;4975736;28;95982;-73
2022/05/05 23:53:52;;;;;;;55.42;28.30;;;;;;;;;;4972575;28;95184;-74
2022/05/05 23:56:18;;;;;;;62.42;29.98;;;;;;;;;;4972351;28;96889;-73
2022/05/05 23:58:45;;;;;;;59.15;28.58;;;;;;;;;;4971598;28;97296;-74
